Time;durP1;ratioP1;P1;durP2;ratioP2;P2;SDS_P1;SDS_P2;PMS_P1;PMS_P2;Temp;Humidity;BMP_temperature;BMP_pressure;BME280_temperature;BME280_humidity;BME280_pressure;Samples;Min_cycle;Max_cycle;Signal;HPM_P1;HPM_P2
2022/08/25 00:00:39;;;;;;;12.58;3.10;;;;;;;21.82;34.34;100148.78;1777638;80;21346;-83
2022/08/25 00:03:47;;;;;;;20.37;3.67;;;;;;;21.78;34.37;100164.30;1778955;80;21243;-82
2022/08/25 00:06:55;;;;;;;8.75;2.72;;;;;;;21.78;34.51;100161.52;1778819;80;21181;-82
2022/08/25 00:10:01;;;;;;;11.63;2.87;;;;;;;21.70;34.64;100157.23;1747796;82;21205;-82
2022/08/25 00:13:07;;;;;;;17.20;3.40;;;;;;;21.76;34.66;100161.78;1747882;82;21755;-83
2022/08/25 00:16:13;;;;;;;13.13;3.40;;;;;;;21.74;34.69;100161.20;1716563;83;21226;-82
2022/08/25 00:19:22;;;;;;;12.55;2.98;;;;;;;21.61;34.84;100166.55;1716595;83;21245;-82
2022/08/25 00:22:28;;;;;;;22.48;3.50;;;;;;;21.59;35.05;100163.16;1730949;83;21181;-83
2022/08/25 00:25:33;;;;;;;11.20;3.05;;;;;;;21.56;35.07;100162.29;1746993;82;21212;-83
2022/08/25 00:28:38;;;;;;;11.45;3.67;;;;;;;21.56;35.17;100153.94;1718017;83;21780;-82
2022/08/25 00:31:45;;;;;;;10.85;3.05;;;;;;;21.56;35.18;100168.41;1716450;83;21248;-82
2022/08/25 00:34:52;;;;;;;7.25;2.92;;;;;;;21.52;35.38;100158.87;1716030;83;21807;-82
2022/08/25 00:37:57;;;;;;;15.05;4.30;;;;;;;21.51;35.45;100154.41;1716440;83;21240;-83
2022/08/25 00:41:05;;;;;;;14.10;3.40;;;;;;;21.48;35.49;100161.30;1716573;83;21329;-83
2022/08/25 00:44:11;;;;;;;12.68;3.55;;;;;;;21.48;35.71;100162.70;1710915;83;21233;-83
2022/08/25 00:47:17;;;;;;;18.25;3.90;;;;;;;21.39;35.98;100173.39;1709884;84;21213;-83
2022/08/25 00:50:22;;;;;;;9.55;2.98;;;;;;;21.37;36.00;100170.58;1709886;84;21244;-83
2022/08/25 00:53:27;;;;;;;14.58;3.58;;;;;;;21.33;36.21;100171.63;1709998;84;21196;-83
2022/08/25 00:56:33;;;;;;;15.00;3.42;;;;;;;21.28;36.41;100176.22;1710131;84;21244;-83
2022/08/25 00:59:39;;;;;;;10.68;3.08;;;;;;;21.29;36.51;100175.13;1711142;84;21756;-83
2022/08/25 01:02:45;;;;;;;14.55;3.55;;;;;;;21.39;36.50;100175.33;1711218;84;21192;-83
2022/08/25 01:05:45;;;;;;;20.05;3.77;;;;;;;21.12;37.01;100175.91;1710980;84;21212;-83
2022/08/25 01:08:44;;;;;;;13.43;2.95;;;;;;;21.15;37.00;100173.19;1711241;84;21197;-83
2022/08/25 01:11:51;;;;;;;12.95;3.22;;;;;;;20.94;37.36;100173.36;1711323;84;21893;-81
2022/08/25 01:14:58;;;;;;;19.15;4.40;;;;;;;21.24;36.98;100180.04;1689797;84;21209;-84
2022/08/25 01:18:05;;;;;;;26.75;3.85;;;;;;;21.33;36.72;100173.56;1711278;84;21201;-83
2022/08/25 01:21:03;;;;;;;8.68;3.40;;;;;;;21.31;36.77;100172.95;1711175;84;21213;-84
2022/08/25 01:23:57;;;;;;;12.55;3.62;;;;;;;20.71;37.81;100168.72;1711110;84;21256;-83
2022/08/25 01:27:02;;;;;;;14.80;3.47;;;;;;;20.81;37.69;100175.03;1710060;84;21213;-84
2022/08/25 01:30:08;;;;;;;19.02;4.35;;;;;;;20.62;37.89;100166.87;1711199;84;21204;-83
2022/08/25 01:33:18;;;;;;;15.78;4.00;;;;;;;20.65;37.87;100158.56;1711253;84;21189;-83
2022/08/25 01:36:27;;;;;;;16.75;3.55;;;;;;;21.13;37.19;100161.48;1710685;84;21795;-83
2022/08/25 01:39:35;;;;;;;17.85;3.58;;;;;;;20.32;38.46;100159.22;1711134;84;21204;-83
2022/08/25 01:43:17;;;;;;;17.15;3.65;;;;;;;20.41;38.62;100158.59;1711165;84;21169;-83
2022/08/25 01:46:22;;;;;;;15.40;3.65;;;;;;;20.31;39.03;100158.92;1717440;83;21236;-82
2022/08/25 01:49:29;;;;;;;19.85;3.77;;;;;;;20.66;38.20;100158.34;1781583;80;21454;-83
2022/08/25 01:52:52;;;;;;;17.55;3.95;;;;;;;20.64;38.30;100156.34;1744375;82;21169;-82
2022/08/25 01:55:54;;;;;;;19.40;4.12;;;;;;;20.72;38.38;100167.62;1771371;80;21216;-82
2022/08/25 01:58:43;;;;;;;12.05;3.67;;;;;;;20.70;38.36;100163.39;1744410;82;21200;-83
2022/08/25 02:01:36;;;;;;;20.85;4.50;;;;;;;20.63;38.55;100159.37;1781218;80;21212;-83
2022/08/25 02:04:22;;;;;;;15.65;3.55;;;;;;;20.68;38.69;100159.48;1744468;82;21248;-82
2022/08/25 02:07:16;;;;;;;28.47;4.62;;;;;;;20.72;38.63;100167.62;1780592;80;21235;-83
2022/08/25 02:10:03;;;;;;;13.22;4.12;;;;;;;20.70;38.70;100163.39;1744383;82;21193;-82
2022/08/25 02:12:56;;;;;;;17.67;4.30;;;;;;;20.45;39.40;100156.17;1781558;80;21224;-82
2022/08/25 02:15:49;;;;;;;14.10;3.20;;;;;;;20.42;39.46;100164.47;1744343;82;21237;-82
2022/08/25 02:18:44;;;;;;;21.00;4.17;;;;;;;20.48;39.39;100165.45;1781912;80;21224;-83
2022/08/25 02:21:50;;;;;;;22.35;4.80;;;;;;;20.48;39.50;100161.28;1744354;82;21236;-83
2022/08/25 02:24:55;;;;;;;18.10;4.10;;;;;;;20.47;39.54;100158.22;1780210;80;21806;-83
2022/08/25 02:28:00;;;;;;;17.42;3.92;;;;;;;20.45;39.73;100163.67;1743033;82;21193;-82
2022/08/25 02:31:05;;;;;;;17.85;3.60;;;;;;;20.45;39.87;100170.06;1781751;80;21188;-83
2022/08/25 02:34:14;;;;;;;13.00;4.40;;;;;;;20.42;40.03;100176.13;1743082;82;21176;-83
2022/08/25 02:37:19;;;;;;;20.37;4.10;;;;;;;20.43;40.14;100181.44;1780740;80;21216;-83
2022/08/25 02:40:24;;;;;;;25.52;4.10;;;;;;;20.40;40.20;100183.84;1744308;82;21247;-83
2022/08/25 02:43:29;;;;;;;12.78;4.08;;;;;;;20.40;40.23;100186.08;1781533;80;21184;-83
2022/08/25 02:46:35;;;;;;;14.80;4.03;;;;;;;20.43;40.25;100181.98;1740553;82;21256;-82
2022/08/25 02:49:40;;;;;;;20.27;4.87;;;;;;;20.35;40.27;100183.73;1712663;84;21222;-83
2022/08/25 02:52:49;;;;;;;15.98;3.83;;;;;;;20.22;40.68;100183.98;1711020;84;21208;-83
2022/08/25 02:55:55;;;;;;;14.07;3.80;;;;;;;20.20;40.80;100181.47;1711155;84;21169;-82
2022/08/25 02:59:00;;;;;;;20.45;3.22;;;;;;;20.19;41.05;100181.72;1711224;84;21205;-83
2022/08/25 03:02:07;;;;;;;19.70;4.03;;;;;;;20.16;41.26;100181.09;1711125;84;21201;-83
2022/08/25 03:05:15;;;;;;;27.00;4.20;;;;;;;20.17;41.25;100174.45;1711191;84;21201;-83
2022/08/25 03:08:21;;;;;;;9.85;3.60;;;;;;;20.16;41.46;100174.16;1709945;84;21795;-82
2022/08/25 03:11:26;;;;;;;13.48;3.83;;;;;;;19.88;41.91;100185.14;1709113;82;21148;-83
2022/08/25 03:14:32;;;;;;;12.18;3.27;;;;;;;19.99;41.96;100182.06;1742045;82;21235;-83
2022/08/25 03:17:39;;;;;;;17.77;3.62;;;;;;;19.94;42.21;100180.00;1741642;82;21809;-83
2022/08/25 03:20:46;;;;;;;10.43;3.58;;;;;;;20.20;41.92;100175.91;1740777;82;21252;-83
2022/08/25 03:23:52;;;;;;;17.35;3.77;;;;;;;20.17;42.00;100175.84;1742162;82;21235;-83
2022/08/25 03:26:58;;;;;;;13.30;3.92;;;;;;;20.29;41.83;100185.56;1742267;82;21141;-83
2022/08/25 03:30:03;;;;;;;15.85;4.20;;;;;;;20.36;41.62;100189.59;1740908;82;21180;-84
2022/08/25 03:33:09;;;;;;;8.30;3.58;;;;;;;20.33;41.71;100185.92;1710101;84;21256;-83
2022/08/25 03:36:15;;;;;;;14.00;4.12;;;;;;;20.61;41.26;100183.25;1709730;83;21264;-83
2022/08/25 03:39:20;;;;;;;22.50;4.00;;;;;;;20.68;41.00;100190.05;1711202;84;21902;-83
2022/08/25 03:42:25;;;;;;;13.22;3.33;;;;;;;20.92;40.52;100190.81;1711146;84;21197;-83
2022/08/25 03:45:30;;;;;;;28.10;3.75;;;;;;;20.90;40.53;100199.96;1711130;84;21197;-83
2022/08/25 03:48:35;;;;;;;9.38;3.45;;;;;;;21.13;40.28;100201.81;1717124;83;21287;-83
2022/08/25 03:51:48;;;;;;;14.53;3.77;;;;;;;21.22;40.28;100199.45;1779925;80;21847;-83
2022/08/25 03:54:54;;;;;;;14.47;3.77;;;;;;;21.17;40.27;100209.41;1744287;82;21172;-83
2022/08/25 03:58:00;;;;;;;16.02;3.47;;;;;;;21.13;40.29;100208.21;1780091;80;21271;-83
2022/08/25 04:01:06;;;;;;;15.15;3.27;;;;;;;21.19;40.22;100205.82;1742911;82;21755;-83
2022/08/25 04:04:12;;;;;;;19.73;3.42;;;;;;;21.18;39.92;100208.31;1780844;80;21220;-83
2022/08/25 04:07:19;;;;;;;15.85;3.55;;;;;;;21.32;39.76;100215.00;1744474;82;21181;-81
2022/08/25 04:10:24;;;;;;;21.45;3.65;;;;;;;21.50;39.35;100209.22;1781686;80;21165;-83
2022/08/25 04:13:32;;;;;;;24.27;3.80;;;;;;;21.53;39.29;100209.25;1744302;82;21193;-83
2022/08/25 04:16:39;;;;;;;15.45;2.92;;;;;;;21.56;39.15;100205.98;1780238;80;21787;-83
2022/08/25 04:19:46;;;;;;;16.85;3.22;;;;;;;21.73;38.92;100206.81;1743032;82;21224;-83
2022/08/25 04:22:54;;;;;;;8.08;3.33;;;;;;;21.96;38.71;100204.41;1781521;80;21236;-83
2022/08/25 04:25:59;;;;;;;14.55;3.22;;;;;;;22.06;38.36;100197.61;1744371;82;21189;-83
2022/08/25 04:29:06;;;;;;;12.07;3.08;;;;;;;22.18;37.98;100196.16;1780963;80;21208;-83
2022/08/25 04:32:12;;;;;;;12.70;3.55;;;;;;;22.28;37.94;100201.04;1744459;82;21212;-82
2022/08/25 04:35:18;;;;;;;17.30;3.17;;;;;;;22.08;37.90;100198.77;1780500;80;21810;-83
2022/08/25 04:38:17;;;;;;;28.40;3.95;;;;;;;22.12;38.21;100198.03;1744229;82;21215;-83
2022/08/25 04:41:26;;;;;;;10.32;3.35;;;;;;;22.24;38.07;100187.33;1780156;80;21176;-82
2022/08/25 04:44:31;;;;;;;17.98;3.12;;;;;;;22.33;38.00;100183.00;1744349;82;21234;-82
2022/08/25 04:47:37;;;;;;;15.60;2.90;;;;;;;22.38;38.23;100178.89;1778202;80;21268;-83
2022/08/25 04:50:45;;;;;;;13.13;3.02;;;;;;;22.57;38.02;100175.25;1733084;82;21248;-83
2022/08/25 04:53:53;;;;;;;22.02;3.17;;;;;;;22.58;37.53;100179.16;1769972;81;21244;-82
2022/08/25 04:56:59;;;;;;;16.35;3.20;;;;;;;22.74;37.07;100183.56;1732992;82;21236;-82
2022/08/25 04:59:51;;;;;;;11.33;3.05;;;;;;;22.80;37.24;100186.70;1769879;81;21275;-82
2022/08/25 05:02:57;;;;;;;8.13;2.77;;;;;;;22.86;37.07;100185.09;1734363;82;21189;-83
2022/08/25 05:06:02;;;;;;;9.03;2.92;;;;;;;23.14;37.41;100189.63;1793081;79;21217;-83
2022/08/25 05:09:10;;;;;;;10.43;3.00;;;;;;;22.91;37.02;100181.55;1799198;79;22645;-82
2022/08/25 05:12:17;;;;;;;16.70;3.55;;;;;;;22.99;36.81;100186.67;1767486;81;21217;-83
2022/08/25 05:16:07;;;;;;;11.22;3.10;;;;;;;23.18;36.53;100189.41;1766051;81;21201;-83
2022/08/25 05:18:35;;;;;;;15.15;3.27;;;;;;;23.26;36.48;100190.05;1761085;81;21192;-83
2022/08/25 05:21:41;;;;;;;17.40;3.15;;;;;;;23.49;36.71;100181.91;1768672;81;21464;-83
2022/08/25 05:24:40;;;;;;;12.55;3.20;;;;;;;23.55;36.41;100180.28;1769030;81;21168;-83
2022/08/25 05:27:45;;;;;;;7.83;2.80;;;;;;;23.61;36.17;100183.41;1769362;81;21176;-83
2022/08/25 05:30:52;;;;;;;12.28;3.02;;;;;;;23.75;35.64;100185.23;1768149;79;21690;-83
2022/08/25 05:33:59;;;;;;;13.30;3.05;;;;;;;23.91;35.97;100190.41;1782289;79;21197;-83
2022/08/25 05:37:04;;;;;;;12.53;3.37;;;;;;;24.03;35.52;100179.03;1801310;79;21219;-83
2022/08/25 05:40:10;;;;;;;6.70;2.83;;;;;;;24.13;35.86;100182.73;1800776;79;21220;-83
2022/08/25 05:43:16;;;;;;;12.05;3.10;;;;;;;24.21;35.38;100178.04;1799964;79;21307;-83
2022/08/25 05:46:24;;;;;;;13.98;3.45;;;;;;;24.31;34.82;100175.02;1801142;79;21165;-83
2022/08/25 05:49:29;;;;;;;7.75;3.00;;;;;;;24.45;34.85;100183.24;1803609;79;21220;-83
2022/08/25 05:52:35;;;;;;;12.45;3.20;;;;;;;24.65;34.30;100167.12;1810429;79;21180;-83
2022/08/25 05:55:40;;;;;;;13.88;2.90;;;;;;;24.84;34.73;100170.27;1810616;79;21177;-84
2022/08/25 05:58:46;;;;;;;11.18;2.98;;;;;;;24.94;33.97;100175.37;1810540;79;21462;-84
2022/08/25 06:05:16;;;;;;;16.75;3.50;;;;;;;25.28;33.84;100169.89;1740950;82;21204;-83
2022/08/25 06:08:22;;;;;;;7.75;3.02;;;;;;;25.45;33.34;100160.13;1712660;84;21776;-83
2022/08/25 06:11:28;;;;;;;11.03;3.15;;;;;;;25.61;33.47;100164.33;1738422;82;21254;-83
2022/08/25 06:14:34;;;;;;;10.53;2.75;;;;;;;25.83;32.68;100157.05;1738867;82;21181;-83
2022/08/25 06:17:42;;;;;;;9.00;2.67;;;;;;;25.97;31.83;100165.17;1739887;82;21197;-83
2022/08/25 06:20:47;;;;;;;8.43;2.65;;;;;;;26.10;31.39;100165.16;1738800;82;21229;-83
2022/08/25 06:23:48;;;;;;;9.63;2.72;;;;;;;26.10;31.36;100160.39;1739704;82;21731;-83
2022/08/25 06:26:42;;;;;;;10.68;3.15;;;;;;;26.13;31.41;100159.84;1712539;82;21164;-83
2022/08/25 06:29:28;;;;;;;15.23;3.37;;;;;;;26.29;30.93;100166.23;1709566;84;21804;-83
2022/08/25 06:32:22;;;;;;;15.90;3.25;;;;;;;26.33;31.15;100165.12;1710998;84;21296;-83
2022/08/25 06:35:11;;;;;;;10.75;2.95;;;;;;;26.49;32.05;100168.20;1705009;84;21193;-83
2022/08/25 06:38:09;;;;;;;9.55;2.67;;;;;;;26.65;31.70;100162.80;1729574;83;21166;-83
2022/08/25 06:41:15;;;;;;;7.97;2.72;;;;;;;26.92;30.95;100161.58;1741756;81;21807;-83
2022/08/25 06:44:21;;;;;;;9.85;3.12;;;;;;;26.96;30.86;100151.42;1769099;81;21177;-83
2022/08/25 06:47:26;;;;;;;8.60;2.50;;;;;;;27.14;30.25;100155.57;1743447;82;21177;-83
2022/08/25 06:50:32;;;;;;;9.05;2.80;;;;;;;27.41;29.97;100159.33;1772150;81;21204;-83
2022/08/25 06:53:31;;;;;;;11.22;2.42;;;;;;;27.22;30.30;100142.33;1769899;81;21172;-83
2022/08/25 06:56:25;;;;;;;8.05;2.80;;;;;;;27.32;30.16;100140.02;1751783;81;21186;-82
2022/08/25 06:59:11;;;;;;;7.72;2.52;;;;;;;27.41;30.15;100134.05;1713937;83;21252;-83
2022/08/25 07:02:03;;;;;;;20.02;2.95;;;;;;;27.65;29.72;100133.58;1712584;83;21213;-83
2022/08/25 07:05:09;;;;;;;13.57;2.93;;;;;;;27.69;29.45;100145.91;1738143;82;21157;-83
2022/08/25 07:08:18;;;;;;;11.30;3.30;;;;;;;27.74;28.35;100140.27;1737293;82;21425;-83
2022/08/25 07:11:23;;;;;;;7.78;2.22;;;;;;;27.95;28.66;100124.08;1769973;81;21184;-83
2022/08/25 07:14:29;;;;;;;6.12;2.27;;;;;;;27.93;27.69;100134.75;1773955;81;21165;-83
2022/08/25 07:17:36;;;;;;;12.20;2.42;;;;;;;27.95;27.50;100142.91;1770796;80;21220;-83
2022/08/25 07:20:45;;;;;;;11.90;2.00;;;;;;;28.15;26.60;100114.58;1769850;81;21216;-83
2022/08/25 07:23:50;;;;;;;15.08;2.02;;;;;;;28.19;26.96;100107.80;1770692;81;21188;-82
2022/08/25 07:26:55;;;;;;;7.00;1.92;;;;;;;28.26;26.85;100108.27;1738416;82;21209;-83
2022/08/25 07:30:01;;;;;;;6.12;2.45;;;;;;;28.38;26.12;100145.30;1773018;81;21193;-83
2022/08/25 07:33:08;;;;;;;10.20;2.10;;;;;;;28.47;26.16;100118.76;1713832;82;22437;-83
2022/08/25 07:36:14;;;;;;;8.35;1.70;;;;;;;28.52;26.69;100111.66;1710498;84;21193;-83
2022/08/25 07:39:21;;;;;;;4.97;2.20;;;;;;;28.33;26.60;100106.52;1751219;81;21733;-83
2022/08/25 07:42:27;;;;;;;10.82;1.95;;;;;;;28.69;26.12;100077.37;1739003;82;21284;-83
2022/08/25 07:45:36;;;;;;;4.60;1.67;;;;;;;28.54;26.26;100082.64;1753540;81;21185;-83
2022/08/25 07:48:43;;;;;;;8.68;2.42;;;;;;;28.60;26.60;100076.38;1759565;81;21232;-83
2022/08/25 07:51:50;;;;;;;3.75;2.47;;;;;;;28.71;27.12;100091.42;1752858;80;21236;-83
2022/08/25 07:55:00;;;;;;;12.30;2.08;;;;;;;28.83;26.47;100078.88;1738750;82;21755;-84
2022/08/25 07:58:07;;;;;;;6.78;1.62;;;;;;;28.94;25.38;100053.68;1730142;82;21913;-83
2022/08/25 08:01:12;;;;;;;8.93;2.15;;;;;;;29.03;25.64;100071.02;1742639;82;21262;-83
2022/08/25 08:04:18;;;;;;;8.88;2.20;;;;;;;29.19;25.92;100047.66;1748205;82;21197;-83
2022/08/25 08:07:26;;;;;;;7.58;2.40;;;;;;;29.42;25.53;100056.31;1729130;82;21172;-83
2022/08/25 08:10:33;;;;;;;17.98;2.35;;;;;;;29.63;25.89;100065.27;1731331;82;21155;-83
2022/08/25 08:13:41;;;;;;;4.75;1.65;;;;;;;29.62;24.48;100058.80;1726892;81;22146;-83
2022/08/25 08:16:48;;;;;;;10.40;2.20;;;;;;;29.54;24.43;100041.14;1753146;81;21178;-83
2022/08/25 08:19:53;;;;;;;11.28;2.50;;;;;;;29.60;25.15;100061.09;1746197;82;21204;-83
2022/08/25 08:22:58;;;;;;;8.25;1.67;;;;;;;28.58;26.33;100041.52;1729280;82;21237;-83
2022/08/25 08:26:04;;;;;;;8.55;2.12;;;;;;;28.92;25.60;100034.83;1715484;83;21157;-83
2022/08/25 08:29:02;;;;;;;;;;;;;;;28.87;25.74;100048.41;1727754;82;21271;-83
2022/08/25 08:32:09;;;;;;;9.50;2.08;;;;;;;28.94;26.42;100035.38;1709717;83;20203;-83
2022/08/25 08:35:17;;;;;;;17.42;3.00;;;;;;;29.01;26.35;100038.66;1727765;83;21312;-83
2022/08/25 08:38:23;;;;;;;10.25;1.90;;;;;;;29.08;25.15;100036.31;1717444;83;21212;-83
2022/08/25 08:45:20;;;;;;;20.92;1.95;;;;;;;29.18;25.21;100041.77;1712002;83;21196;-83
2022/08/25 08:48:39;;;;;;;;;;;;;;;29.18;25.20;100035.31;1717020;83;21135;-83
2022/08/25 08:51:50;;;;;;;7.78;2.00;;;;;;;29.31;26.33;100020.99;1716425;81;20251;-83
2022/08/25 08:55:00;;;;;;;6.15;1.70;;;;;;;29.57;25.65;100021.42;1736240;82;21553;-83
2022/08/25 08:58:08;;;;;;;6.47;1.70;;;;;;;29.64;24.03;100046.66;1719487;82;21222;-83
2022/08/25 09:01:16;;;;;;;7.58;2.67;;;;;;;29.77;24.51;100036.53;1720534;82;21244;-84
2022/08/25 09:04:48;;;;;;;9.05;2.20;;;;;;;29.68;24.29;100013.03;1726469;82;21185;-83
2022/08/25 09:07:47;;;;;;;6.70;2.35;;;;;;;29.68;24.06;100019.50;1682930;82;21178;-84
2022/08/25 09:10:45;;;;;;;7.90;1.50;;;;;;;29.78;23.41;100017.92;1728036;83;21174;-84
2022/08/25 09:14:10;;;;;;;9.43;2.35;;;;;;;29.66;23.60;100004.90;1738937;81;21233;-83
2022/08/25 09:17:48;;;;;;;12.55;1.85;;;;;;;29.54;23.39;100018.61;1762479;80;21169;-83
2022/08/25 09:21:06;;;;;;;8.28;1.52;;;;;;;29.50;23.15;99987.97;1776701;80;21189;-83
2022/08/25 09:24:21;;;;;;;5.45;1.30;;;;;;;29.58;23.18;99969.55;1739510;81;21216;-83
2022/08/25 09:27:49;;;;;;;19.70;1.70;;;;;;;29.63;23.60;100007.49;1762695;81;21200;-83
2022/08/25 09:31:12;;;;;;;6.78;2.10;;;;;;;29.76;23.26;100013.16;1755279;81;21202;-83
2022/08/25 09:34:26;;;;;;;8.88;1.57;;;;;;;29.71;23.50;99976.61;1737126;81;21255;-83
2022/08/25 09:37:26;;;;;;;3.27;1.90;;;;;;;29.81;24.54;99995.30;1729980;81;21184;-83
2022/08/25 09:40:19;;;;;;;11.33;2.25;;;;;;;29.83;23.02;99989.34;1752883;81;21251;-83
2022/08/25 09:43:49;;;;;;;11.70;2.55;;;;;;;29.72;24.03;99984.48;1737018;81;22312;-83
2022/08/25 09:47:07;;;;;;;9.95;2.42;;;;;;;29.70;23.47;99992.44;1756391;81;21160;-83
2022/08/25 09:50:13;;;;;;;11.40;1.98;;;;;;;29.70;24.35;99993.27;1723276;82;21180;-83
2022/08/25 09:53:21;;;;;;;12.25;2.10;;;;;;;29.85;24.86;99980.85;1717195;81;21277;-84
2022/08/25 09:56:36;;;;;;;9.18;3.00;;;;;;;29.82;25.48;99965.13;1758639;80;21156;-83
2022/08/25 09:59:45;;;;;;;12.50;2.47;;;;;;;30.04;23.92;99968.06;1738226;82;21344;-83
2022/08/25 10:03:11;;;;;;;10.25;2.10;;;;;;;30.04;24.87;99985.81;1726187;81;21213;-85
2022/08/25 10:06:13;;;;;;;19.62;2.10;;;;;;;29.98;24.60;99971.56;1760674;80;21217;-84
2022/08/25 10:09:07;;;;;;;12.05;1.98;;;;;;;30.03;24.42;99970.63;1748833;81;21328;-85
2022/08/25 10:12:03;;;;;;;10.32;1.90;;;;;;;30.05;25.09;99951.39;1760619;81;21349;-84
2022/08/25 10:14:49;;;;;;;10.68;1.87;;;;;;;30.17;24.00;99943.27;1745484;81;21806;-83
2022/08/25 10:17:41;;;;;;;15.18;2.20;;;;;;;30.34;24.11;99946.00;1741182;81;21198;-84
2022/08/25 10:20:48;;;;;;;;;;;;;;;30.41;25.23;99950.06;1775011;81;21244;-83
2022/08/25 10:23:56;;;;;;;13.25;2.02;;;;;;;30.50;24.16;99947.34;1761469;79;20191;-83
2022/08/25 10:27:23;;;;;;;8.58;2.08;;;;;;;30.75;23.90;99954.38;1779619;79;21330;-84
2022/08/25 10:30:52;;;;;;;14.15;1.80;;;;;;;30.78;24.84;99941.88;1761308;79;21228;-83
2022/08/25 10:34:21;;;;;;;10.45;2.00;;;;;;;30.23;22.73;99940.59;1754349;80;21164;-84
2022/08/25 10:38:00;;;;;;;;;;;;;;;30.46;22.53;99954.77;1768218;81;21181;-84
2022/08/25 10:41:44;;;;;;;11.80;1.92;;;;;;;30.45;23.22;99971.44;1743041;81;20185;-83
2022/08/25 10:48:54;;;;;;;15.13;2.37;;;;;;;30.23;23.13;99942.00;1760277;80;21367;-84
2022/08/25 10:52:06;;;;;;;14.03;1.90;;;;;;;30.51;22.99;99932.06;1764177;80;21137;-84
2022/08/25 10:55:21;;;;;;;7.80;1.90;;;;;;;30.62;22.65;99926.42;1741014;81;21590;-84
2022/08/25 10:58:58;;;;;;;21.40;1.98;;;;;;;30.67;21.61;99915.01;1737572;81;21220;-84
2022/08/25 11:02:26;;;;;;;13.95;1.77;;;;;;;30.79;21.63;99920.13;1742572;81;21200;-84
2022/08/25 11:05:47;;;;;;;7.50;1.45;;;;;;;30.88;21.37;99899.86;1688807;82;21200;-83
2022/08/25 11:08:57;;;;;;;13.03;1.85;;;;;;;31.02;20.87;99918.97;1749635;82;21259;-84
2022/08/25 11:12:22;;;;;;;9.98;1.90;;;;;;;31.20;21.64;99914.27;1745563;82;21322;-83
2022/08/25 11:15:55;;;;;;;11.75;2.08;;;;;;;31.20;21.64;99914.27;1614323;87;21260;-83
2022/08/25 11:19:25;;;;;;;8.55;1.55;;;;;;;31.23;20.97;99922.66;1741788;81;21783;-83
2022/08/25 11:22:51;;;;;;;12.05;1.60;;;;;;;31.10;21.60;99907.48;1732602;82;21204;-84
2022/08/25 11:26:05;;;;;;;15.80;1.60;;;;;;;30.54;22.27;99907.45;1751340;81;21256;-83
2022/08/25 11:29:18;;;;;;;12.28;1.77;;;;;;;30.71;22.14;99907.61;1742293;81;21257;-83
2022/08/25 11:32:32;;;;;;;14.70;2.33;;;;;;;30.77;22.14;99903.52;1758570;80;21276;-83
2022/08/25 11:35:40;;;;;;;6.22;2.08;;;;;;;30.86;22.23;99911.20;1735763;81;21215;-84
2022/08/25 11:39:04;;;;;;;6.35;1.95;;;;;;;30.86;22.23;99911.20;1716352;81;21213;-84
2022/08/25 11:42:46;;;;;;;8.50;2.25;;;;;;;30.93;22.28;99910.19;1759346;80;21173;-84
2022/08/25 11:46:18;;;;;;;17.12;2.47;;;;;;;30.70;22.79;99909.31;1745789;81;21874;-84
2022/08/25 11:50:02;;;;;;;11.00;2.27;;;;;;;30.55;23.16;99919.83;1723497;82;21205;-83
2022/08/25 11:53:34;;;;;;;22.50;2.25;;;;;;;30.63;23.12;99901.86;1740443;81;21184;-83
2022/08/25 11:56:44;;;;;;;11.40;2.52;;;;;;;30.74;23.55;99895.69;1714541;82;21212;-82
2022/08/25 12:00:18;;;;;;;15.53;2.40;;;;;;;30.73;23.71;99881.32;1731619;81;21188;-83
2022/08/25 12:03:40;;;;;;;11.88;2.10;;;;;;;30.57;23.41;99891.86;1719859;82;21524;-83
2022/08/25 12:07:18;;;;;;;13.32;2.65;;;;;;;30.57;23.41;99891.86;1731067;82;21197;-84
2022/08/25 12:10:31;;;;;;;13.10;2.77;;;;;;;30.62;24.18;99874.22;1717751;82;21218;-83
2022/08/25 12:13:54;;;;;;;20.35;2.65;;;;;;;30.75;23.73;99875.34;1714550;82;21226;-84
2022/08/25 12:17:07;;;;;;;13.22;1.95;;;;;;;30.75;23.73;99875.34;1736478;81;21232;-83
2022/08/25 12:20:11;;;;;;;12.25;2.27;;;;;;;30.74;23.88;99875.92;1734458;82;21271;-83
2022/08/25 12:23:17;;;;;;;17.37;2.22;;;;;;;30.91;23.89;99877.19;1725844;82;21188;-82
2022/08/25 12:26:36;;;;;;;8.63;2.00;;;;;;;31.02;22.97;99867.30;1735190;81;21229;-83
2022/08/25 12:30:05;;;;;;;14.75;2.10;;;;;;;31.08;22.66;99875.89;1723760;82;21193;-83
2022/08/25 12:33:48;;;;;;;17.95;2.55;;;;;;;31.30;23.06;99864.58;1732725;81;21236;-83
2022/08/25 12:37:18;;;;;;;8.38;2.05;;;;;;;31.47;23.21;99884.16;1731111;81;22393;-83
2022/08/25 12:40:46;;;;;;;17.15;2.67;;;;;;;31.26;24.12;99872.58;1717743;82;21190;-83
2022/08/25 12:43:56;;;;;;;9.03;2.63;;;;;;;31.34;23.73;99883.72;1726237;82;21224;-84
2022/08/25 12:47:19;;;;;;;21.15;2.42;;;;;;;31.25;24.36;99876.58;1748890;81;21225;-83
2022/08/25 12:50:42;;;;;;;17.62;2.47;;;;;;;31.26;23.30;99862.69;1666969;83;21268;-84
2022/08/25 12:53:52;;;;;;;9.40;2.02;;;;;;;31.33;23.37;99869.31;1714484;83;21452;-83
2022/08/25 12:57:07;;;;;;;22.75;2.47;;;;;;;31.20;23.43;99869.66;1742395;81;21252;-83
2022/08/25 13:00:34;;;;;;;13.08;2.47;;;;;;;31.16;23.29;99883.58;1733318;81;21221;-83
2022/08/25 13:04:16;;;;;;;7.90;2.08;;;;;;;31.14;23.66;99894.94;1683911;81;21268;-84
2022/08/25 13:07:32;;;;;;;13.43;2.40;;;;;;;31.23;24.44;99876.88;1683694;83;21240;-82
2022/08/25 13:10:53;;;;;;;11.88;2.70;;;;;;;31.32;22.33;99864.83;1790257;78;21460;-84
2022/08/25 13:14:24;;;;;;;7.12;2.22;;;;;;;31.34;22.98;99858.28;1794750;79;21330;-83
2022/08/25 13:17:38;;;;;;;20.10;2.58;;;;;;;31.30;22.87;99870.23;1787364;79;21209;-84
2022/08/25 13:20:43;;;;;;;14.98;2.50;;;;;;;31.37;22.79;99851.38;1797328;78;21744;-83
2022/08/25 13:23:53;;;;;;;29.02;2.98;;;;;;;31.32;23.13;99862.83;1757559;81;21268;-84
2022/08/25 13:27:03;;;;;;;15.50;2.65;;;;;;;31.19;22.65;99877.27;1800621;79;21510;-84
2022/08/25 13:30:10;;;;;;;;;;;;;;;31.08;22.98;99861.77;1794185;79;21165;-84
2022/08/25 13:33:28;;;;;;;14.45;2.72;;;;;;;31.04;22.99;99862.16;1790070;79;20245;-84
2022/08/25 13:39:59;;;;;;;20.02;3.08;;;;;;;30.90;22.93;99857.17;1734120;82;21173;-84
2022/08/25 13:43:12;;;;;;;9.88;3.70;;;;;;;30.86;23.39;99839.20;1753616;81;21204;-84
2022/08/25 13:46:19;;;;;;;13.45;3.00;;;;;;;30.88;22.96;99837.74;1733797;82;21209;-83
2022/08/25 13:49:34;;;;;;;11.28;3.37;;;;;;;30.96;23.42;99841.75;1773166;81;21196;-84
2022/08/25 13:52:40;;;;;;;15.05;3.40;;;;;;;30.99;23.69;99845.34;1730911;82;21765;-84
2022/08/25 13:56:05;;;;;;;12.25;3.47;;;;;;;30.97;24.06;99849.09;1768978;81;21255;-84
2022/08/25 13:59:15;;;;;;;11.60;3.27;;;;;;;30.92;23.41;99840.76;1716440;82;22411;-82
2022/08/25 14:02:23;;;;;;;9.53;3.50;;;;;;;30.98;22.90;99849.34;1684681;85;21326;-84
2022/08/25 14:05:48;;;;;;;13.72;2.92;;;;;;;30.96;22.71;99857.28;1710016;84;21227;-83
2022/08/25 14:08:57;;;;;;;24.65;4.62;;;;;;;30.92;22.98;99838.77;1685006;85;21200;-84
2022/08/25 14:12:05;;;;;;;13.35;2.90;;;;;;;30.93;23.46;99830.54;1682255;85;21205;-83
2022/08/25 14:15:21;;;;;;;9.40;3.00;;;;;;;31.06;23.83;99827.38;1709003;84;21222;-84
2022/08/25 14:18:36;;;;;;;11.30;3.10;;;;;;;31.08;23.52;99830.70;1709495;84;21273;-84
2022/08/25 14:21:41;;;;;;;16.90;3.42;;;;;;;31.02;24.43;99829.19;1710715;84;21210;-84
2022/08/25 14:24:50;;;;;;;18.87;3.30;;;;;;;30.97;23.08;99833.56;1737814;82;21254;-83
2022/08/25 14:28:07;;;;;;;18.50;3.83;;;;;;;31.22;22.93;99830.02;1736477;82;21253;-83
2022/08/25 14:31:18;;;;;;;9.95;2.80;;;;;;;31.13;23.09;99826.90;1721695;83;21183;-83
2022/08/25 14:34:27;;;;;;;16.57;3.20;;;;;;;31.14;23.06;99822.91;1714044;83;21248;-83
2022/08/25 14:37:33;;;;;;;23.27;4.45;;;;;;;31.08;23.69;99831.28;1720828;83;21184;-83
2022/08/25 14:40:39;;;;;;;15.15;4.03;;;;;;;31.01;23.74;99837.41;1721738;83;21176;-83
2022/08/25 14:43:46;;;;;;;13.25;3.65;;;;;;;31.01;23.92;99836.00;1712260;83;21217;-83
2022/08/25 14:46:56;;;;;;;12.98;3.40;;;;;;;30.90;23.77;99829.77;1712202;83;21347;-83
2022/08/25 14:50:03;;;;;;;15.20;3.50;;;;;;;30.95;23.39;99837.27;1720632;83;21207;-83
2022/08/25 14:53:09;;;;;;;24.25;3.67;;;;;;;30.92;23.10;99830.88;1721669;83;22519;-83